Time;durP1;ratioP1;P1;durP2;ratioP2;P2;SDS_P1;SDS_P2;PMS_P1;PMS_P2;Temp;Humidity;BMP_temperature;BMP_pressure;BME280_temperature;BME280_humidity;BME280_pressure;Samples;Min_cycle;Max_cycle;Signal;HPM_P1;HPM_P2
2023/10/27 00:01:47;;;;;;;5.50;2.50;;;;;;;-3.26;97.06;100817.59;4918590;29;20380;-64
2023/10/27 00:04:12;;;;;;;4.53;2.57;;;;;;;-3.19;96.76;100830.25;4918995;29;20047;-62
2023/10/27 00:06:38;;;;;;;3.50;3.20;;;;;;;-3.13;97.27;100840.41;4935573;29;20127;-62
2023/10/27 00:09:04;;;;;;;6.13;2.77;;;;;;;-3.14;96.92;100837.88;4918322;29;20409;-65
2023/10/27 00:11:29;;;;;;;5.50;3.10;;;;;;;-3.13;97.12;100842.16;4936320;29;20042;-64
2023/10/27 00:13:55;;;;;;;3.23;2.73;;;;;;;-3.12;96.66;100833.44;4920935;29;20035;-64
2023/10/27 00:16:21;;;;;;;6.07;4.73;;;;;;;-3.20;97.45;100819.91;4938791;29;20048;-63
2023/10/27 00:18:47;;;;;;;2.85;2.45;;;;;;;-3.16;96.62;100831.88;4941997;29;20032;-65
2023/10/27 00:21:13;;;;;;;5.87;2.67;;;;;;;-3.19;96.94;100827.66;4941489;29;20058;-65
2023/10/27 00:23:39;;;;;;;3.73;2.50;;;;;;;-3.16;97.30;100829.28;4944792;29;20040;-64
2023/10/27 00:26:05;;;;;;;2.53;2.28;;;;;;;-3.25;97.69;100817.53;4940288;29;20520;-64
2023/10/27 00:28:32;;;;;;;2.92;2.30;;;;;;;-3.19;96.86;100826.81;4939676;29;20475;-63
2023/10/27 00:31:01;;;;;;;4.35;2.75;;;;;;;-3.23;97.42;100814.84;4905535;29;20458;-63
2023/10/27 00:33:26;;;;;;;3.55;2.60;;;;;;;-3.21;97.57;100819.06;4938418;29;20119;-64
2023/10/27 00:35:53;;;;;;;4.63;2.60;;;;;;;-3.24;97.46;100808.78;4938493;29;20566;-63
2023/10/27 00:38:18;;;;;;;4.13;2.78;;;;;;;-3.41;97.22;100781.91;4920966;29;20051;-63
2023/10/27 00:40:44;;;;;;;3.13;2.70;;;;;;;-3.21;98.02;100810.41;4938446;29;20503;-64
2023/10/27 00:43:15;;;;;;;5.33;3.27;;;;;;;-3.21;97.80;100810.41;4939421;29;20044;-64
2023/10/27 00:45:41;;;;;;;2.80;2.50;;;;;;;-3.22;97.04;100809.56;4939065;29;20275;-63
2023/10/27 00:48:08;;;;;;;3.42;2.40;;;;;;;-3.44;97.70;100765.50;4939143;29;20519;-61
2023/10/27 00:50:34;;;;;;;4.93;2.63;;;;;;;-3.19;98.28;100801.59;4922235;29;20027;-65
2023/10/27 00:53:00;;;;;;;3.27;2.60;;;;;;;-3.26;97.45;100778.53;4921234;29;20110;-61
2023/10/27 00:55:25;;;;;;;4.83;3.53;;;;;;;-3.18;97.69;100792.91;4937869;29;20126;-62
2023/10/27 00:57:52;;;;;;;2.63;2.30;;;;;;;-3.15;98.10;100786.69;4938220;29;20043;-62
2023/10/27 01:00:18;;;;;;;5.40;3.03;;;;;;;-3.27;97.35;100772.47;4937922;29;20087;-63
2023/10/27 01:02:43;;;;;;;5.10;2.83;;;;;;;-3.16;97.18;100791.06;4904959;29;20035;-62
2023/10/27 01:05:09;;;;;;;3.00;2.40;;;;;;;-3.50;97.39;100724.13;4937427;29;20479;-65
2023/10/27 01:07:35;;;;;;;3.60;2.50;;;;;;;-3.29;97.58;100770.88;4937718;29;20519;-63
2023/10/27 01:10:02;;;;;;;4.93;2.60;;;;;;;-3.19;97.11;100785.13;4937800;29;20044;-64
2023/10/27 01:12:29;;;;;;;5.25;2.95;;;;;;;-3.52;96.68;100728.56;4921519;29;20043;-63
2023/10/27 01:14:55;;;;;;;4.20;2.93;;;;;;;-3.20;97.66;100778.22;4938697;29;20039;-64
2023/10/27 01:17:20;;;;;;;4.10;2.47;;;;;;;-3.31;98.10;100755.31;4937403;29;20103;-62
2023/10/27 01:19:46;;;;;;;3.83;3.43;;;;;;;-3.20;96.95;100767.81;4937219;29;20518;-61
2023/10/27 01:22:15;;;;;;;2.93;2.27;;;;;;;-3.20;97.91;100773.03;4937448;29;20376;-63
2023/10/27 01:24:42;;;;;;;4.03;2.70;;;;;;;-3.27;97.75;100758.63;4936946;29;20039;-65
2023/10/27 01:27:07;;;;;;;3.08;2.78;;;;;;;-3.22;97.44;100765.28;4937705;29;20036;-63
2023/10/27 01:29:35;;;;;;;3.78;3.15;;;;;;;-3.44;97.76;100729.06;4920539;29;20067;-63
2023/10/27 01:32:01;;;;;;;3.80;2.83;;;;;;;-3.26;97.83;100752.50;4937393;29;20111;-63
2023/10/27 01:34:26;;;;;;;2.87;2.60;;;;;;;-3.28;97.80;100749.13;4920075;29;20124;-64
2023/10/27 01:36:52;;;;;;;3.23;2.40;;;;;;;-3.27;98.00;100743.00;4937164;29;20045;-64
2023/10/27 01:39:18;;;;;;;4.40;2.80;;;;;;;-3.65;98.37;100677.19;4920333;29;20036;-63
2023/10/27 01:41:44;;;;;;;2.67;2.33;;;;;;;-3.34;98.53;100721.63;4937378;29;20036;-63
2023/10/27 01:44:10;;;;;;;3.30;2.57;;;;;;;-3.32;98.14;100721.53;4937043;29;20035;-67
2023/10/27 01:46:36;;;;;;;4.93;3.07;;;;;;;-3.32;97.81;100721.53;4937034;29;20039;-64
2023/10/27 01:49:01;;;;;;;5.67;2.90;;;;;;;-3.51;97.92;100696.41;4937281;29;20036;-63
2023/10/27 01:51:27;;;;;;;6.20;2.97;;;;;;;-3.40;97.89;100708.91;4937304;29;20131;-64
2023/10/27 01:53:52;;;;;;;3.00;2.63;;;;;;;-3.40;98.45;100708.06;4936894;29;20137;-65
2023/10/27 01:56:18;;;;;;;4.10;2.60;;;;;;;-3.42;97.81;100709.91;4920002;29;20040;-64
2023/10/27 01:58:46;;;;;;;4.70;2.50;;;;;;;-3.42;98.38;100702.94;4904214;29;20093;-63
2023/10/27 02:01:15;;;;;;;2.88;2.42;;;;;;;-3.70;98.38;100659.19;4936864;29;20514;-64
2023/10/27 02:03:41;;;;;;;4.03;2.50;;;;;;;-3.30;98.14;100720.56;4904857;29;20039;-63
2023/10/27 02:06:07;;;;;;;3.25;2.80;;;;;;;-3.30;98.01;100712.72;4941051;29;20044;-62
2023/10/27 02:08:35;;;;;;;3.77;2.33;;;;;;;-3.32;98.27;100716.34;4940603;29;20516;-63
2023/10/27 02:11:02;;;;;;;3.90;2.47;;;;;;;-3.62;98.36;100662.25;4938591;29;20046;-64
2023/10/27 02:13:28;;;;;;;3.15;2.50;;;;;;;-3.28;97.84;100707.44;4938184;29;20627;-65
2023/10/27 02:15:54;;;;;;;5.05;2.63;;;;;;;-3.46;98.05;100678.81;4921579;29;20087;-62
2023/10/27 02:18:20;;;;;;;3.27;2.80;;;;;;;-3.52;98.04;100673.88;4939079;29;20134;-63
2023/10/27 02:20:49;;;;;;;2.90;2.60;;;;;;;-3.38;98.64;100694.06;4922988;29;20675;-62
2023/10/27 02:23:17;;;;;;;3.08;2.60;;;;;;;-3.42;98.76;100689.06;4924689;29;20483;-64
2023/10/27 02:25:43;;;;;;;4.35;2.85;;;;;;;-3.34;99.10;100703.41;4940479;29;20103;-63
2023/10/27 02:28:08;;;;;;;6.40;2.90;;;;;;;-3.50;99.25;100684.22;4939571;29;20191;-63
2023/10/27 02:30:36;;;;;;;4.50;2.60;;;;;;;-3.59;99.17;100672.50;4937485;29;20407;-64
2023/10/27 02:33:02;;;;;;;3.15;2.53;;;;;;;-3.40;98.88;100698.50;4919515;29;20110;-66
2023/10/27 02:35:28;;;;;;;3.63;3.30;;;;;;;-3.44;98.96;100703.00;4919604;29;20217;-64
2023/10/27 02:37:54;;;;;;;6.23;3.90;;;;;;;-3.41;98.42;100707.22;4936590;29;20095;-64
2023/10/27 02:40:20;;;;;;;4.97;2.70;;;;;;;-3.56;98.50;100677.56;4935796;29;20066;-63
2023/10/27 02:42:46;;;;;;;3.53;2.77;;;;;;;-3.51;98.94;100685.97;4936483;29;20122;-64
2023/10/27 02:45:11;;;;;;;4.33;2.70;;;;;;;-3.40;98.74;100689.84;4936718;29;20136;-62
2023/10/27 02:47:37;;;;;;;3.13;2.70;;;;;;;-3.48;98.66;100675.41;4918810;29;20052;-64
2023/10/27 02:50:03;;;;;;;6.33;3.10;;;;;;;-3.40;98.68;100688.06;4936012;29;20039;-64
2023/10/27 02:52:29;;;;;;;3.58;2.38;;;;;;;-3.40;98.86;100695.06;4918706;29;20059;-64
2023/10/27 02:54:54;;;;;;;7.60;4.10;;;;;;;-3.54;99.42;100669.69;4919186;29;20619;-64
2023/10/27 02:57:20;;;;;;;2.87;2.57;;;;;;;-3.67;99.15;100661.63;4937300;29;20051;-65
2023/10/27 02:59:46;;;;;;;3.50;3.20;;;;;;;-3.51;99.22;100685.97;4920554;29;20403;-64
2023/10/27 03:02:11;;;;;;;4.10;2.57;;;;;;;-3.55;99.66;100694.03;4920254;29;20523;-66
2023/10/27 03:04:37;;;;;;;3.30;2.70;;;;;;;-3.59;99.95;100677.72;4937360;29;20398;-62
2023/10/27 03:07:03;;;;;;;6.27;2.93;;;;;;;-3.78;99.88;100635.28;4919589;29;20055;-64
2023/10/27 03:09:28;;;;;;;5.60;3.00;;;;;;;-3.51;99.96;100670.38;4918801;29;20058;-66
2023/10/27 03:11:54;;;;;;;5.10;3.60;;;;;;;-3.58;100.00;100668.16;4918634;29;20046;-63
2023/10/27 03:14:19;;;;;;;3.43;2.50;;;;;;;-3.76;99.80;100634.31;4936500;29;20127;-63
2023/10/27 03:16:45;;;;;;;4.80;3.30;;;;;;;-3.86;100.00;100621.81;4937779;29;20039;-65
2023/10/27 03:19:10;;;;;;;4.30;2.80;;;;;;;-3.57;99.90;100678.47;4937328;29;20062;-64
2023/10/27 03:21:36;;;;;;;4.17;2.70;;;;;;;-3.61;100.00;100671.75;4938130;29;20081;-64
2023/10/27 03:24:02;;;;;;;3.50;2.93;;;;;;;-3.61;100.00;100670.91;4935928;29;20095;-66
2023/10/27 03:26:28;;;;;;;5.43;3.95;;;;;;;-3.73;100.00;100648.94;4937538;29;20103;-64
2023/10/27 03:28:53;;;;;;;6.53;2.90;;;;;;;-3.82;100.00;100644.16;4920086;29;20550;-60
2023/10/27 03:31:19;;;;;;;2.70;2.47;;;;;;;-3.73;100.00;100661.94;4943036;29;20052;-63
2023/10/27 03:33:45;;;;;;;4.72;2.65;;;;;;;-3.76;100.00;100668.13;4941699;29;20039;-64
2023/10/27 03:36:11;;;;;;;3.63;2.87;;;;;;;-3.83;100.00;100660.69;4924142;29;20046;-63
2023/10/27 03:38:36;;;;;;;3.40;2.73;;;;;;;-3.95;100.00;100648.28;4938102;29;20068;-63
2023/10/27 03:41:02;;;;;;;3.30;3.00;;;;;;;-4.00;100.00;100639.84;4938052;29;20403;-64
2023/10/27 03:43:29;;;;;;;5.43;3.03;;;;;;;-3.97;100.00;100642.31;4938237;29;20040;-63
2023/10/27 03:45:54;;;;;;;3.67;3.15;;;;;;;-3.90;100.00;100656.69;4922249;29;20475;-61
2023/10/27 03:48:20;;;;;;;7.37;3.70;;;;;;;-4.05;100.00;100627.03;4938672;29;20086;-67
2023/10/27 03:50:45;;;;;;;4.23;2.67;;;;;;;-4.07;100.00;100627.13;4921447;29;20125;-63
2023/10/27 03:53:11;;;;;;;3.53;2.67;;;;;;;-3.99;100.00;100637.19;4940064;29;20554;-64
2023/10/27 03:55:36;;;;;;;3.50;2.40;;;;;;;-4.05;100.00;100634.84;4940766;29;20074;-64
2023/10/27 03:58:15;;;;;;;4.63;3.43;;;;;;;-4.12;100.00;100615.25;4938757;29;20134;-64
2023/10/27 04:00:42;;;;;;;4.38;3.05;;;;;;;-4.02;100.00;100634.72;4941256;29;20554;-65
2023/10/27 04:03:09;;;;;;;2.35;2.15;;;;;;;-4.09;100.00;100621.16;4937503;29;20047;-64
2023/10/27 04:05:34;;;;;;;4.18;2.88;;;;;;;-3.98;100.00;100643.22;4935194;29;20040;-63
2023/10/27 04:08:00;;;;;;;3.53;2.87;;;;;;;-4.14;100.00;100617.94;4934557;29;20097;-65
2023/10/27 04:10:25;;;;;;;4.00;3.53;;;;;;;-4.14;100.00;100617.94;4934650;29;20106;-64
2023/10/27 04:12:51;;;;;;;4.27;3.87;;;;;;;-4.12;100.00;100616.09;4935193;29;20032;-67
2023/10/27 04:15:17;;;;;;;5.40;2.77;;;;;;;-4.10;100.00;100624.66;4917709;29;20152;-60
2023/10/27 04:17:43;;;;;;;4.63;2.65;;;;;;;-4.04;100.00;100627.91;4918416;29;20130;-62
2023/10/27 04:20:09;;;;;;;4.40;2.97;;;;;;;-4.16;100.00;100598.09;4935509;29;20074;-63
2023/10/27 04:22:35;;;;;;;3.93;2.70;;;;;;;-4.14;100.00;100610.13;4935172;29;20431;-65
2023/10/27 04:25:00;;;;;;;4.93;3.00;;;;;;;-4.35;100.00;100579.94;4934805;29;20276;-65
2023/10/27 04:27:28;;;;;;;3.53;2.97;;;;;;;-4.34;100.00;100576.41;4934553;29;20530;-64
2023/10/27 04:29:54;;;;;;;2.83;2.60;;;;;;;-4.07;100.00;100619.31;4918428;29;20063;-67
2023/10/27 04:32:22;;;;;;;3.05;2.72;;;;;;;-4.11;100.00;100606.53;4935896;29;20075;-65
2023/10/27 04:34:47;;;;;;;4.47;3.15;;;;;;;-4.02;100.00;100613.91;4935046;29;20040;-63
2023/10/27 04:37:13;;;;;;;8.07;3.83;;;;;;;-4.07;100.00;100598.50;4935508;29;20075;-63
2023/10/27 04:39:38;;;;;;;5.93;3.60;;;;;;;-4.14;100.00;100591.91;4935958;29;20123;-64
2023/10/27 04:42:04;;;;;;;5.37;3.07;;;;;;;-4.06;100.00;100604.53;4918279;29;20521;-64
2023/10/27 04:44:30;;;;;;;4.87;3.03;;;;;;;-4.03;100.00;100596.63;4934596;29;20028;-63
2023/10/27 04:46:55;;;;;;;3.83;2.83;;;;;;;-4.01;100.00;100604.34;4934179;29;20031;-67
2023/10/27 04:49:21;;;;;;;5.67;3.67;;;;;;;-4.08;100.00;100596.81;4917201;29;20040;-65
2023/10/27 04:51:46;;;;;;;6.90;3.63;;;;;;;-4.06;100.00;100594.13;4934348;29;20086;-65
2023/10/27 04:54:12;;;;;;;5.90;3.60;;;;;;;-4.24;100.00;100575.09;4934456;29;20483;-66
2023/10/27 04:56:38;;;;;;;7.27;4.10;;;;;;;-4.07;100.00;100602.84;4934394;29;20079;-64
2023/10/27 04:59:03;;;;;;;5.60;3.00;;;;;;;-4.15;100.00;100585.03;4917504;29;20032;-67
2023/10/27 05:01:29;;;;;;;5.03;2.83;;;;;;;-4.13;100.00;100579.75;4934877;29;20039;-62
2023/10/27 05:03:54;;;;;;;4.13;3.00;;;;;;;-4.18;100.00;100574.78;4921285;29;20044;-62
2023/10/27 05:06:20;;;;;;;6.00;3.50;;;;;;;-4.14;100.00;100576.31;4940724;29;20063;-64
2023/10/27 05:08:46;;;;;;;6.53;3.37;;;;;;;-4.13;100.00;100570.19;4939759;29;20078;-64
2023/10/27 05:11:12;;;;;;;8.93;3.43;;;;;;;-4.01;100.00;100586.13;4921651;29;20484;-62
2023/10/27 05:13:37;;;;;;;4.57;3.33;;;;;;;-4.03;100.00;100577.56;4938406;29;20039;-62
2023/10/27 05:16:04;;;;;;;14.20;3.57;;;;;;;-3.99;100.00;100586.91;4919665;29;20031;-64
2023/10/27 05:18:29;;;;;;;5.65;3.35;;;;;;;-4.04;100.00;100570.69;4920025;29;20505;-63
2023/10/27 05:20:55;;;;;;;5.87;3.47;;;;;;;-3.91;100.00;100582.16;4937187;29;20036;-64
2023/10/27 05:23:21;;;;;;;3.73;2.93;;;;;;;-3.87;100.00;100588.91;4937274;29;20459;-65
2023/10/27 05:25:47;;;;;;;5.63;2.77;;;;;;;-3.86;100.00;100594.03;4919886;29;20039;-66
2023/10/27 05:28:12;;;;;;;8.33;3.73;;;;;;;-3.84;100.00;100601.75;4937253;29;20075;-63
2023/10/27 05:30:38;;;;;;;4.93;4.20;;;;;;;-3.84;100.00;100594.78;4936475;29;20063;-66
2023/10/27 05:33:04;;;;;;;6.40;3.07;;;;;;;-3.96;100.00;100568.53;4937501;29;20054;-64
2023/10/27 05:35:30;;;;;;;6.22;3.03;;;;;;;-3.86;100.00;100582.78;4920019;29;20130;-65
2023/10/27 05:37:55;;;;;;;5.17;3.40;;;;;;;-3.89;100.00;100564.72;4936621;29;20131;-64
2023/10/27 05:40:22;;;;;;;10.37;3.80;;;;;;;-3.81;100.00;100579.03;4937446;29;20035;-64
2023/10/27 05:42:48;;;;;;;6.35;4.35;;;;;;;-4.00;100.00;100551.41;4936963;29;20056;-67
2023/10/27 05:45:14;;;;;;;10.60;4.17;;;;;;;-4.22;100.00;100516.03;4936846;29;20122;-66
2023/10/27 05:47:40;;;;;;;5.03;3.43;;;;;;;-3.90;100.00;100563.03;4919297;29;20123;-65
2023/10/27 05:50:07;;;;;;;4.25;3.47;;;;;;;-3.73;100.00;100594.28;4936752;29;20456;-64
2023/10/27 05:52:33;;;;;;;9.85;3.97;;;;;;;-3.86;100.00;100578.41;4919503;29;20127;-66
2023/10/27 05:54:59;;;;;;;7.43;3.90;;;;;;;-3.80;100.00;100596.31;4935625;29;20127;-66
2023/10/27 05:57:24;;;;;;;4.30;2.90;;;;;;;-3.76;100.00;100587.47;4936524;29;20530;-68
2023/10/27 05:59:50;;;;;;;5.20;3.63;;;;;;;-3.92;100.00;100554.47;4936446;29;20086;-66
2023/10/27 06:02:15;;;;;;;9.10;3.67;;;;;;;-3.79;100.00;100582.38;4935334;29;20106;-64
2023/10/27 06:04:41;;;;;;;5.97;3.40;;;;;;;-3.82;100.00;100571.28;4936429;29;20039;-67
2023/10/27 06:07:07;;;;;;;6.07;4.40;;;;;;;-3.88;100.00;100556.00;4936049;29;20066;-64
2023/10/27 06:09:34;;;;;;;4.10;3.30;;;;;;;-4.06;100.00;100529.97;4936241;29;20043;-67
2023/10/27 06:12:00;;;;;;;6.60;3.67;;;;;;;-3.67;100.00;100604.38;4934975;29;20256;-66
2023/10/27 06:14:25;;;;;;;4.73;4.30;;;;;;;-3.67;100.00;100598.34;4935317;29;20594;-66
2023/10/27 06:16:51;;;;;;;8.00;4.07;;;;;;;-3.78;100.00;100572.81;4934915;29;20414;-67
2023/10/27 06:19:16;;;;;;;9.20;3.80;;;;;;;-3.81;100.00;100565.16;4936208;29;20038;-69
2023/10/27 06:21:43;;;;;;;7.87;6.27;;;;;;;-3.65;100.00;100591.28;4934588;29;20036;-66
2023/10/27 06:24:10;;;;;;;8.60;3.65;;;;;;;-3.77;100.00;100566.69;4934838;29;20047;-67
2023/10/27 06:26:36;;;;;;;7.50;4.28;;;;;;;-3.59;100.00;100590.97;4935629;29;20387;-65
2023/10/27 06:29:01;;;;;;;6.57;4.82;;;;;;;-3.81;100.00;100558.22;4935366;29;20047;-67
2023/10/27 06:31:28;;;;;;;7.83;3.50;;;;;;;-3.57;100.00;100587.38;4950623;29;20062;-67
2023/10/27 06:33:54;;;;;;;11.05;4.03;;;;;;;-3.58;100.00;100575.28;4954262;29;20046;-66
2023/10/27 06:36:19;;;;;;;5.13;3.20;;;;;;;-3.67;100.00;100549.72;4953960;29;20126;-65
2023/10/27 06:38:45;;;;;;;6.33;4.70;;;;;;;-3.44;100.00;100582.41;4953781;29;20505;-66
2023/10/27 06:41:10;;;;;;;9.00;3.47;;;;;;;-3.40;100.00;100583.09;4954420;29;20487;-64
2023/10/27 06:43:36;;;;;;;6.77;3.93;;;;;;;-3.36;99.78;100589.81;4955323;29;20505;-65
2023/10/27 06:46:02;;;;;;;7.80;5.30;;;;;;;-3.52;100.00;100548.94;4921568;29;20035;-68
2023/10/27 06:48:27;;;;;;;6.33;3.77;;;;;;;-3.54;100.00;100548.16;4954908;29;20035;-68
2023/10/27 06:50:53;;;;;;;24.33;5.23;;;;;;;-3.38;100.00;100570.81;4954571;29;20467;-67
2023/10/27 06:53:18;;;;;;;7.73;4.47;;;;;;;-3.34;99.80;100582.75;4955026;29;20062;-65
2023/10/27 06:55:44;;;;;;;7.03;3.53;;;;;;;-3.50;100.00;100547.09;4954558;29;20576;-68
2023/10/27 06:58:09;;;;;;;5.43;3.50;;;;;;;-3.59;100.00;100531.94;4934153;29;20497;-67
2023/10/27 07:00:35;;;;;;;8.97;3.20;;;;;;;-3.60;100.00;100522.47;4934944;29;20122;-67
2023/10/27 07:03:01;;;;;;;6.43;3.80;;;;;;;-3.41;99.89;100555.38;4935317;29;20036;-64
2023/10/27 07:05:27;;;;;;;5.85;3.20;;;;;;;-3.33;100.00;100569.66;4934911;29;20118;-64
2023/10/27 07:07:52;;;;;;;6.10;4.27;;;;;;;-3.38;100.00;100552.59;4919053;29;20111;-67
2023/10/27 07:10:18;;;;;;;3.70;3.07;;;;;;;-3.26;99.60;100568.41;4947417;29;20039;-66
2023/10/27 07:12:44;;;;;;;6.18;3.80;;;;;;;-3.22;98.94;100558.69;4936706;29;20032;-66
2023/10/27 07:15:11;;;;;;;6.87;4.27;;;;;;;-3.21;99.25;100552.56;4918094;29;20368;-66
2023/10/27 07:17:37;;;;;;;5.20;3.60;;;;;;;-3.28;98.79;100530.34;4934863;29;20044;-65
2023/10/27 07:20:03;;;;;;;7.17;3.80;;;;;;;-3.05;98.17;100568.22;4900587;29;20048;-65
2023/10/27 07:22:30;;;;;;;6.75;3.83;;;;;;;-3.24;98.16;100531.88;4935649;29;20039;-66
2023/10/27 07:24:55;;;;;;;8.02;3.80;;;;;;;-3.02;98.62;100558.47;4935626;29;20120;-68
2023/10/27 07:27:21;;;;;;;6.87;3.60;;;;;;;-3.09;97.54;100538.06;4936720;29;20086;-67
2023/10/27 07:29:47;;;;;;;6.20;3.37;;;;;;;-3.24;97.09;100513.66;4935071;29;20039;-64
2023/10/27 07:32:13;;;;;;;9.90;4.30;;;;;;;-3.08;97.90;100534.53;4918112;29;20048;-64
2023/10/27 07:34:39;;;;;;;6.97;3.63;;;;;;;-3.35;97.55;100487.34;4935770;29;20138;-68
2023/10/27 07:37:05;;;;;;;6.00;3.40;;;;;;;-3.12;97.07;100519.06;4917955;29;20102;-63
2023/10/27 07:39:30;;;;;;;9.60;4.22;;;;;;;-3.32;97.82;100501.03;4934757;29;20408;-65
2023/10/27 07:41:56;;;;;;;7.13;3.93;;;;;;;-3.03;98.40;100541.16;4916891;29;20031;-65
2023/10/27 07:44:22;;;;;;;7.03;3.90;;;;;;;-3.10;98.17;100518.97;4933099;29;20071;-64
2023/10/27 07:46:47;;;;;;;8.43;3.30;;;;;;;-2.99;97.97;100521.00;4925452;29;20031;-65
2023/10/27 07:49:13;;;;;;;6.90;4.03;;;;;;;-2.70;97.11;100550.69;4934324;29;20040;-63
2023/10/27 07:51:39;;;;;;;8.90;3.30;;;;;;;-2.66;96.88;100536.56;4917408;29;20078;-64
2023/10/27 07:54:04;;;;;;;16.07;4.07;;;;;;;-2.52;95.66;100549.69;4934408;29;20078;-68
2023/10/27 07:56:32;;;;;;;6.33;3.23;;;;;;;-2.47;95.25;100545.06;4916921;29;20039;-68
2023/10/27 07:58:59;;;;;;;8.20;4.05;;;;;;;-2.69;94.40;100508.06;4932236;29;20131;-66
2023/10/27 08:01:24;;;;;;;9.27;3.05;;;;;;;-3.50;94.11;100385.69;4934056;29;20039;-67
2023/10/27 08:03:50;;;;;;;7.43;3.63;;;;;;;-2.49;93.98;100539.09;4934556;29;20406;-66
2023/10/27 08:06:16;;;;;;;5.03;3.50;;;;;;;-2.49;94.29;100528.66;4934910;29;20035;-65
2023/10/27 08:08:42;;;;;;;5.53;3.60;;;;;;;-2.39;93.94;100531.59;4941808;29;20035;-65
2023/10/27 08:11:15;;;;;;;7.55;3.50;;;;;;;-2.37;93.95;100509.72;4929978;29;20929;-65
2023/10/27 08:13:40;;;;;;;6.78;3.67;;;;;;;-2.05;92.67;100544.41;4940591;29;20141;-69
2023/10/27 08:16:06;;;;;;;6.00;3.37;;;;;;;-2.16;91.83;100504.22;4939148;29;20463;-65
2023/10/27 08:18:31;;;;;;;7.97;3.50;;;;;;;-1.89;91.11;100540.00;4954859;29;20047;-66
2023/10/27 08:20:57;;;;;;;10.13;3.27;;;;;;;-1.83;91.17;100510.09;4936586;29;20066;-67
2023/10/27 08:23:23;;;;;;;19.03;5.37;;;;;;;-1.65;90.47;100529.06;4953872;29;20154;-67
2023/10/27 08:25:52;;;;;;;8.30;3.70;;;;;;;-1.58;89.41;100535.59;4953590;29;20466;-64
2023/10/27 08:28:19;;;;;;;16.00;4.88;;;;;;;-1.72;89.01;100502.47;4953503;29;20035;-69
2023/10/27 08:30:45;;;;;;;8.85;5.60;;;;;;;-1.65;88.78;100503.78;4952612;28;20051;-69
2023/10/27 08:33:11;;;;;;;11.68;3.85;;;;;;;-1.78;88.99;100479.31;4953255;29;20054;-66
2023/10/27 08:35:37;;;;;;;6.43;3.80;;;;;;;-1.69;88.85;100510.13;4953467;29;20039;-66
2023/10/27 08:38:02;;;;;;;8.30;3.90;;;;;;;-1.80;88.96;100494.25;4945926;29;20047;-66
2023/10/27 08:40:28;;;;;;;7.83;3.70;;;;;;;-1.71;88.71;100514.59;4911014;29;20498;-67
2023/10/27 08:42:56;;;;;;;5.63;3.50;;;;;;;-1.62;89.40;100516.66;4930718;29;20035;-69
2023/10/27 08:45:22;;;;;;;9.20;4.20;;;;;;;-1.54;89.24;100515.34;4941108;29;20060;-67
2023/10/27 08:47:48;;;;;;;8.85;3.38;;;;;;;-1.54;89.31;100499.69;4943946;29;20039;-69
2023/10/27 08:50:14;;;;;;;7.43;4.00;;;;;;;-1.39;89.23;100504.00;4947845;29;20427;-67
2023/10/27 08:52:40;;;;;;;8.30;3.63;;;;;;;-1.48;87.86;100481.88;4945030;29;20279;-70
2023/10/27 08:55:10;;;;;;;5.93;3.30;;;;;;;-1.53;87.25;100460.41;4944342;29;20046;-66
2023/10/27 08:57:37;;;;;;;4.22;3.40;;;;;;;-1.34;87.04;100499.34;4937204;29;20044;-66
2023/10/27 09:00:07;;;;;;;12.83;4.10;;;;;;;-1.24;87.18;100482.16;4931251;29;20039;-67
2023/10/27 09:02:35;;;;;;;11.38;5.07;;;;;;;-1.19;85.86;100474.03;4945775;29;20268;-68
2023/10/27 09:05:06;;;;;;;8.17;4.03;;;;;;;-0.82;85.34;100501.34;4928940;29;20043;-67
2023/10/27 09:07:38;;;;;;;5.67;3.57;;;;;;;-0.82;84.13;100483.88;4943944;29;20286;-68
2023/10/27 09:10:08;;;;;;;9.17;3.97;;;;;;;-0.72;83.93;100469.28;4929442;29;20721;-69
2023/10/27 09:12:38;;;;;;;6.87;4.27;;;;;;;-0.79;83.66;100462.78;4951231;29;20286;-67
2023/10/27 09:15:09;;;;;;;4.73;4.23;;;;;;;-0.62;82.77;100490.44;4936213;29;20414;-65
2023/10/27 09:17:58;;;;;;;7.43;4.17;;;;;;;-0.64;84.45;100471.41;4953810;29;20294;-65
2023/10/27 09:20:25;;;;;;;8.00;4.50;;;;;;;-0.54;83.73;100462.03;4950642;29;20376;-66
2023/10/27 09:23:04;;;;;;;8.23;4.20;;;;;;;-0.38;83.04;100470.56;4946612;29;20649;-68
2023/10/27 09:25:32;;;;;;;9.13;4.17;;;;;;;-0.41;83.06;100465.53;4913945;29;20804;-69
2023/10/27 09:28:01;;;;;;;4.13;3.53;;;;;;;-0.59;82.73;100458.03;4943786;29;20350;-67
2023/10/27 09:30:33;;;;;;;6.77;3.87;;;;;;;-0.75;83.53;100468.63;4929144;29;20305;-64
2023/10/27 09:33:13;;;;;;;11.37;5.03;;;;;;;-0.95;84.66;100446.38;4925738;29;20283;-66
2023/10/27 09:35:40;;;;;;;8.33;3.50;;;;;;;-1.08;85.75;100448.94;4948811;29;20262;-66
2023/10/27 09:38:06;;;;;;;10.27;4.33;;;;;;;-1.03;86.28;100469.53;4949748;29;20295;-63
2023/10/27 09:40:40;;;;;;;7.77;4.13;;;;;;;-0.98;86.41;100452.63;4947586;29;20282;-65
2023/10/27 09:43:21;;;;;;;9.60;5.07;;;;;;;-0.88;86.11;100438.97;4932299;29;20311;-65
2023/10/27 09:45:55;;;;;;;9.20;4.63;;;;;;;-0.79;85.25;100425.31;4944247;29;20347;-67
2023/10/27 09:48:29;;;;;;;6.57;3.83;;;;;;;-0.78;84.96;100411.31;4943500;28;20825;-66
2023/10/27 09:51:10;;;;;;;7.00;4.17;;;;;;;-0.56;84.40;100450.00;4944898;29;20298;-65
2023/10/27 09:53:37;;;;;;;8.50;3.90;;;;;;;-0.60;84.15;100435.41;4933635;29;20319;-65
2023/10/27 09:56:03;;;;;;;11.50;4.27;;;;;;;-0.43;84.03;100443.84;4944555;29;20839;-64
2023/10/27 09:58:31;;;;;;;8.37;4.23;;;;;;;-0.37;84.30;100440.84;4928158;29;20302;-67
2023/10/27 10:00:58;;;;;;;7.27;3.50;;;;;;;-0.25;83.70;100441.81;4950048;29;20274;-65
2023/10/27 10:03:27;;;;;;;10.80;4.47;;;;;;;-0.37;82.87;100430.38;4926381;29;20379;-64
2023/10/27 10:06:18;;;;;;;9.65;4.05;;;;;;;-0.41;83.59;100436.75;4944611;29;20347;-66
2023/10/27 10:09:05;;;;;;;9.33;4.03;;;;;;;-0.50;83.99;100442.59;4946223;29;20043;-67
2023/10/27 10:11:37;;;;;;;11.43;3.80;;;;;;;-0.69;84.19;100415.94;4927319;29;20588;-65
2023/10/27 10:14:04;;;;;;;8.90;4.10;;;;;;;-0.55;84.87;100435.97;4942846;29;20264;-66
2023/10/27 10:16:43;;;;;;;10.03;4.80;;;;;;;-0.73;84.73;100411.84;4947063;29;20282;-65
2023/10/27 10:19:09;;;;;;;5.03;3.65;;;;;;;-0.51;84.65;100425.22;4955972;29;20300;-65
2023/10/27 10:21:39;;;;;;;6.73;4.60;;;;;;;-0.22;83.28;100427.69;4937976;29;20490;-67
2023/10/27 10:24:08;;;;;;;9.37;4.90;;;;;;;-0.37;83.07;100393.75;4938285;29;20031;-69
2023/10/27 10:27:10;;;;;;;7.80;4.33;;;;;;;-0.27;83.51;100412.31;4955102;29;20279;-68
2023/10/27 10:29:36;;;;;;;6.67;3.60;;;;;;;-0.06;82.73;100412.63;4954808;29;20285;-66
2023/10/27 10:32:34;;;;;;;5.93;3.90;;;;;;;0.00;81.61;100409.63;4954949;29;20303;-68
2023/10/27 10:35:23;;;;;;;9.77;3.63;;;;;;;-0.18;82.29;100405.59;4937256;29;20061;-67
2023/10/27 10:37:51;;;;;;;4.93;3.60;;;;;;;-0.34;82.15;100390.06;4936992;29;20741;-66
2023/10/27 10:40:20;;;;;;;4.68;3.72;;;;;;;-0.27;83.17;100391.38;4936292;29;20048;-65
2023/10/27 10:43:20;;;;;;;7.15;3.92;;;;;;;0.14;81.57;100417.34;4903377;29;20562;-66
2023/10/27 10:45:51;;;;;;;5.93;4.43;;;;;;;0.24;80.03;100388.75;4916677;29;20043;-64
2023/10/27 10:48:18;;;;;;;8.77;4.83;;;;;;;0.31;79.47;100384.78;4918249;29;20292;-65
2023/10/27 10:50:44;;;;;;;4.97;3.20;;;;;;;0.38;79.13;100393.03;4954063;29;20285;-68
2023/10/27 10:53:24;;;;;;;4.27;3.63;;;;;;;0.63;78.93;100400.88;4955667;29;20275;-69
2023/10/27 10:55:55;;;;;;;8.93;3.40;;;;;;;0.63;77.71;100387.78;4954964;29;20089;-71
2023/10/27 10:58:30;;;;;;;8.53;3.80;;;;;;;0.47;77.80;100376.69;4920723;29;20740;-68
2023/10/27 11:00:57;;;;;;;6.83;3.80;;;;;;;0.42;79.39;100399.75;4954417;28;20275;-68
2023/10/27 11:03:36;;;;;;;7.13;3.60;;;;;;;0.35;79.62;100403.75;4954736;29;20385;-66
2023/10/27 11:06:02;;;;;;;;;;;;;;;0.26;79.06;100392.94;4938099;29;20819;-66
2023/10/27 11:08:30;;;;;;;7.13;3.70;;;;;;;0.12;79.29;100400.06;4955605;29;19919;-66
2023/10/27 11:11:09;;;;;;;8.47;3.83;;;;;;;-0.10;79.63;100387.59;4954899;29;20262;-70
2023/10/27 11:13:43;;;;;;;10.87;5.03;;;;;;;-0.07;80.21;100396.06;4955307;29;20364;-67
2023/10/27 11:16:22;;;;;;;7.30;3.80;;;;;;;-0.08;81.01;100391.78;4955393;29;20340;-66
2023/10/27 11:18:52;;;;;;;6.77;3.60;;;;;;;-0.07;80.71;100393.47;4935346;29;20350;-67
2023/10/27 11:21:23;;;;;;;11.33;3.77;;;;;;;-0.21;80.85;100369.19;4936445;29;20283;-65
2023/10/27 11:23:50;;;;;;;6.37;4.30;;;;;;;0.03;80.97;100392.84;4938263;29;20274;-67